Time;durP1;ratioP1;P1;durP2;ratioP2;P2;SDS_P1;SDS_P2;PMS_P1;PMS_P2;Temp;Humidity;BMP_temperature;BMP_pressure;BME280_temperature;BME280_humidity;BME280_pressure;Samples;Min_cycle;Max_cycle;Signal;HPM_P1;HPM_P2
2023/04/29 00:01:32;;;;;;;6.37;4.20;;;20.30;47.90;;;;;;4944526;29;20539;-80
2023/04/29 00:04:01;;;;;;;5.43;4.40;;;20.30;48.00;;;;;;4948739;29;20460;-80
2023/04/29 00:06:30;;;;;;;5.40;4.30;;;20.30;47.90;;;;;;4951169;29;20466;-79
2023/04/29 00:08:58;;;;;;;10.03;4.53;;;20.30;48.00;;;;;;4947381;29;20443;-80
2023/04/29 00:11:26;;;;;;;4.90;4.27;;;20.30;48.10;;;;;;4961786;29;20517;-81
2023/04/29 00:13:54;;;;;;;6.53;4.03;;;20.30;48.10;;;;;;4957512;29;20432;-81
2023/04/29 00:16:22;;;;;;;5.23;4.63;;;20.30;48.00;;;;;;4950932;29;20435;-81
2023/04/29 00:18:50;;;;;;;7.40;4.50;;;20.30;48.00;;;;;;4954381;29;20437;-80
2023/04/29 00:21:18;;;;;;;4.50;4.10;;;20.30;48.10;;;;;;4953873;29;20473;-80
2023/04/29 00:23:47;;;;;;;12.23;4.33;;;20.30;48.10;;;;;;4951559;28;20474;-80
2023/04/29 00:26:15;;;;;;;14.77;4.73;;;20.30;48.00;;;;;;4950155;29;20471;-80
2023/04/29 00:28:43;;;;;;;5.10;3.90;;;20.30;48.20;;;;;;4944339;29;20470;-81
2023/04/29 00:31:11;;;;;;;9.77;4.50;;;20.30;48.10;;;;;;4956234;29;20442;-80
2023/04/29 00:33:40;;;;;;;8.03;4.30;;;20.30;48.10;;;;;;4951933;28;20451;-81
2023/04/29 00:36:09;;;;;;;4.70;4.20;;;20.20;48.10;;;;;;4952544;28;20535;-80
2023/04/29 00:38:37;;;;;;;9.20;4.40;;;20.20;48.20;;;;;;4960754;29;20467;-81
2023/04/29 00:41:06;;;;;;;5.63;4.30;;;20.20;48.20;;;;;;4955644;29;20482;-81
2023/04/29 00:43:36;;;;;;;14.67;4.40;;;20.20;48.20;;;;;;4958819;29;20449;-80
2023/04/29 00:46:04;;;;;;;5.63;4.13;;;20.20;48.10;;;;;;4952264;29;20529;-81
2023/04/29 00:48:33;;;;;;;8.10;4.47;;;20.20;48.20;;;;;;4950958;29;20439;-80
2023/04/29 00:51:01;;;;;;;4.53;3.90;;;20.20;48.20;;;;;;4941568;29;20460;-81
2023/04/29 00:53:29;;;;;;;4.47;4.07;;;20.20;48.20;;;;;;4956888;29;20442;-81
2023/04/29 00:55:57;;;;;;;5.40;4.10;;;20.20;48.30;;;;;;4948152;29;20463;-80
2023/04/29 00:58:32;;;;;;;5.23;4.10;;;20.20;48.20;;;;;;4949964;29;20448;-81
2023/04/29 01:01:00;;;;;;;5.40;4.17;;;20.20;48.30;;;;;;4946088;29;20470;-81
2023/04/29 01:03:28;;;;;;;7.23;4.10;;;20.20;48.20;;;;;;4952417;29;20451;-80
2023/04/29 01:06:01;;;;;;;6.73;4.20;;;20.10;48.30;;;;;;4941053;29;20523;-80
2023/04/29 01:08:33;;;;;;;6.60;4.10;;;20.20;48.30;;;;;;4941949;29;20444;-80
2023/04/29 01:11:05;;;;;;;5.27;4.13;;;20.20;48.30;;;;;;4941547;29;20472;-80
2023/04/29 01:13:37;;;;;;;5.13;4.00;;;20.20;48.30;;;;;;4956333;29;20455;-81
2023/04/29 01:16:08;;;;;;;5.20;4.70;;;20.10;48.30;;;;;;4947085;29;20450;-81
2023/04/29 01:18:39;;;;;;;5.50;4.77;;;20.10;48.60;;;;;;4954299;28;20451;-81
2023/04/29 01:21:07;;;;;;;6.50;4.43;;;20.10;48.40;;;;;;4949964;29;20478;-81
2023/04/29 01:23:37;;;;;;;4.33;3.93;;;20.10;48.40;;;;;;4951282;29;20447;-80
2023/04/29 01:26:07;;;;;;;7.50;5.10;;;20.10;48.40;;;;;;4955663;28;20491;-81
2023/04/29 01:28:40;;;;;;;7.53;5.90;;;20.10;48.40;;;;;;4954094;29;20456;-81
2023/04/29 01:31:10;;;;;;;6.83;5.50;;;20.10;48.40;;;;;;4950585;29;20483;-81
2023/04/29 01:33:41;;;;;;;10.33;6.20;;;20.10;48.50;;;;;;4950687;28;20454;-81
2023/04/29 01:36:16;;;;;;;11.43;6.70;;;20.10;48.40;;;;;;4953210;29;20442;-80
2023/04/29 01:38:49;;;;;;;9.33;6.40;;;20.00;48.40;;;;;;4953546;28;20561;-80
2023/04/29 01:41:19;;;;;;;9.80;7.67;;;20.00;48.40;;;;;;4948095;29;20483;-80
2023/04/29 01:43:47;;;;;;;9.73;7.53;;;20.00;48.40;;;;;;4952142;29;20442;-80
2023/04/29 01:46:17;;;;;;;10.43;7.20;;;20.00;48.50;;;;;;4936187;29;20479;-80
2023/04/29 01:48:45;;;;;;;10.00;7.80;;;20.00;48.50;;;;;;4941672;29;20451;-80
2023/04/29 01:51:13;;;;;;;11.20;8.50;;;20.00;48.50;;;;;;4944328;29;20555;-81
2023/04/29 01:53:42;;;;;;;11.60;8.50;;;20.00;48.50;;;;;;4946607;29;20462;-81
2023/04/29 01:56:11;;;;;;;11.53;8.50;;;20.00;48.50;;;;;;4944226;29;20454;-80
2023/04/29 01:58:40;;;;;;;10.67;8.60;;;20.00;48.50;;;;;;4946712;29;20452;-81
2023/04/29 02:01:09;;;;;;;13.00;8.80;;;20.00;48.60;;;;;;4939551;29;20460;-81
2023/04/29 02:03:37;;;;;;;15.57;9.77;;;20.00;48.60;;;;;;4949777;29;20459;-81
2023/04/29 02:06:06;;;;;;;12.03;8.90;;;19.90;48.50;;;;;;4955086;29;20480;-80
2023/04/29 02:08:34;;;;;;;13.10;9.17;;;20.00;48.60;;;;;;4956829;29;20492;-81
2023/04/29 02:11:02;;;;;;;14.20;9.83;;;19.90;48.60;;;;;;4959944;29;20482;-81
2023/04/29 02:13:31;;;;;;;14.57;9.77;;;19.90;48.60;;;;;;4951438;29;20451;-81
2023/04/29 02:16:07;;;;;;;15.10;9.27;;;19.90;48.60;;;;;;4951306;29;20451;-81
2023/04/29 02:18:35;;;;;;;11.20;9.00;;;19.90;48.60;;;;;;4949780;29;20459;-81
2023/04/29 02:21:04;;;;;;;12.07;8.80;;;19.90;48.60;;;;;;4953018;29;20475;-79
2023/04/29 02:23:32;;;;;;;13.27;8.90;;;19.90;48.70;;;;;;4953180;29;20462;-80
2023/04/29 02:26:02;;;;;;;12.53;9.03;;;19.90;48.80;;;;;;4952408;29;20454;-81
2023/04/29 02:28:33;;;;;;;12.80;9.10;;;19.90;48.80;;;;;;4956320;29;20451;-80
2023/04/29 02:31:01;;;;;;;12.57;8.87;;;19.90;48.80;;;;;;4940560;29;20523;-80
2023/04/29 02:33:29;;;;;;;12.00;8.83;;;19.90;48.60;;;;;;4949636;29;20550;-81
2023/04/29 02:35:58;;;;;;;14.07;9.60;;;19.90;48.80;;;;;;4941026;29;20440;-80
2023/04/29 02:38:26;;;;;;;12.03;8.60;;;19.80;48.80;;;;;;4940967;29;20448;-80
2023/04/29 02:40:54;;;;;;;11.47;9.03;;;19.80;48.70;;;;;;4951319;29;20481;-81
2023/04/29 02:43:22;;;;;;;10.90;8.10;;;19.80;48.90;;;;;;4957999;29;20447;-80
2023/04/29 02:45:52;;;;;;;12.13;9.37;;;19.90;48.80;;;;;;4943213;28;20456;-80
2023/04/29 02:48:20;;;;;;;11.23;8.40;;;19.80;48.70;;;;;;4949446;29;20482;-80
2023/04/29 02:50:48;;;;;;;12.70;8.90;;;19.80;48.70;;;;;;4954993;29;20471;-81
2023/04/29 02:53:16;;;;;;;11.20;9.10;;;19.80;48.80;;;;;;4958019;28;20478;-80
2023/04/29 02:55:46;;;;;;;11.63;8.30;;;19.80;48.80;;;;;;4947580;29;20461;-81
2023/04/29 02:58:13;;;;;;;12.37;9.47;;;19.80;48.70;;;;;;4942585;29;21036;-80
2023/04/29 03:00:41;;;;;;;10.83;8.00;;;19.80;48.80;;;;;;4958485;29;20550;-80
2023/04/29 03:03:11;;;;;;;10.90;8.37;;;19.80;48.90;;;;;;4947071;29;20440;-80
2023/04/29 03:05:39;;;;;;;11.80;8.53;;;19.80;48.90;;;;;;4950910;29;20478;-81
2023/04/29 03:08:09;;;;;;;11.10;8.23;;;19.80;48.90;;;;;;4957951;29;20479;-80
2023/04/29 03:10:38;;;;;;;10.83;8.07;;;19.70;48.90;;;;;;4957856;29;20463;-81
2023/04/29 03:13:08;;;;;;;12.33;8.37;;;19.80;49.00;;;;;;4948847;29;20479;-80
2023/04/29 03:15:38;;;;;;;10.83;8.77;;;19.70;48.90;;;;;;4952855;29;20495;-80
2023/04/29 03:18:08;;;;;;;10.00;8.33;;;19.70;48.90;;;;;;4952914;29;20440;-80
2023/04/29 03:20:38;;;;;;;9.83;7.87;;;19.70;49.00;;;;;;4950463;29;20444;-80
2023/04/29 03:23:06;;;;;;;9.70;7.43;;;19.70;48.90;;;;;;4954270;29;20514;-79
2023/04/29 03:25:35;;;;;;;11.03;7.77;;;19.70;49.00;;;;;;4944936;29;20458;-79
2023/04/29 03:28:04;;;;;;;8.60;7.50;;;19.70;48.90;;;;;;4941489;29;20472;-80
2023/04/29 03:30:32;;;;;;;11.70;8.10;;;19.70;49.00;;;;;;4950144;29;20457;-79
2023/04/29 03:33:00;;;;;;;9.40;7.63;;;19.70;49.00;;;;;;4942129;29;20550;-79
2023/04/29 03:35:28;;;;;;;10.00;6.93;;;19.70;49.60;;;;;;4942680;29;20969;-79
2023/04/29 03:37:59;;;;;;;10.23;7.30;;;19.70;49.00;;;;;;4950083;29;20452;-79
2023/04/29 03:40:27;;;;;;;10.00;7.60;;;19.70;49.10;;;;;;4942160;29;20456;-79
2023/04/29 03:42:55;;;;;;;9.20;7.23;;;19.60;49.00;;;;;;4952427;29;20453;-79
2023/04/29 03:45:23;;;;;;;7.63;6.83;;;19.70;49.00;;;;;;4961253;29;20443;-80
2023/04/29 03:47:51;;;;;;;8.33;7.00;;;19.70;49.00;;;;;;4942384;29;20476;-80
2023/04/29 03:50:19;;;;;;;8.80;6.90;;;19.60;49.00;;;;;;4947449;29;20475;-79
2023/04/29 03:52:47;;;;;;;9.77;7.73;;;19.60;49.10;;;;;;4951906;29;20462;-80
2023/04/29 03:55:17;;;;;;;9.10;7.00;;;19.70;49.10;;;;;;4940875;29;20451;-79
2023/04/29 03:57:45;;;;;;;7.03;6.37;;;19.60;49.20;;;;;;4941839;29;20447;-79
2023/04/29 04:00:13;;;;;;;8.43;6.90;;;19.60;49.10;;;;;;4952385;29;20450;-80
2023/04/29 04:02:41;;;;;;;7.50;6.47;;;19.60;49.10;;;;;;4959937;29;20458;-80
2023/04/29 04:05:10;;;;;;;9.47;6.70;;;19.60;49.10;;;;;;4960325;29;20543;-80
2023/04/29 04:07:38;;;;;;;8.90;7.30;;;19.60;49.10;;;;;;4959736;29;20482;-79
2023/04/29 04:10:07;;;;;;;7.30;6.40;;;19.60;49.10;;;;;;4953023;29;20455;-80
2023/04/29 04:12:36;;;;;;;8.30;7.13;;;19.60;49.00;;;;;;4945421;28;20475;-80
2023/04/29 04:15:04;;;;;;;7.50;6.37;;;19.60;49.00;;;;;;4941981;29;20455;-80
2023/04/29 04:17:32;;;;;;;7.83;6.80;;;19.60;49.10;;;;;;4941348;29;20436;-79
2023/04/29 04:20:00;;;;;;;8.40;7.20;;;19.60;49.20;;;;;;4941076;29;20454;-79
2023/04/29 04:22:28;;;;;;;8.47;6.80;;;19.60;49.10;;;;;;4941395;29;20471;-80
2023/04/29 04:24:56;;;;;;;9.70;6.70;;;19.60;49.20;;;;;;4951273;29;20454;-80
2023/04/29 04:27:24;;;;;;;11.90;7.53;;;19.60;49.20;;;;;;4940601;29;20486;-80
2023/04/29 04:29:55;;;;;;;7.23;6.10;;;19.50;49.10;;;;;;4959848;29;20453;-80
2023/04/29 04:32:23;;;;;;;7.77;6.27;;;19.60;49.20;;;;;;4961856;28;20474;-77
2023/04/29 04:34:51;;;;;;;7.47;6.20;;;19.50;49.10;;;;;;4943535;28;20448;-79
2023/04/29 04:37:18;;;;;;;8.07;6.47;;;19.60;49.30;;;;;;4947894;29;20526;-80
2023/04/29 04:39:47;;;;;;;7.57;6.60;;;19.60;49.30;;;;;;4955552;29;20420;-79
2023/04/29 04:42:15;;;;;;;8.43;6.00;;;19.60;49.10;;;;;;4942450;29;20453;-79
2023/04/29 04:44:42;;;;;;;7.23;6.50;;;19.60;49.20;;;;;;4959161;29;20454;-79
2023/04/29 04:47:12;;;;;;;6.33;5.67;;;19.60;49.20;;;;;;4957382;29;20446;-79
2023/04/29 04:49:40;;;;;;;7.63;5.83;;;19.60;49.20;;;;;;4957424;29;20446;-80
2023/04/29 04:52:08;;;;;;;7.33;6.00;;;19.60;49.20;;;;;;4956858;29;20482;-80
2023/04/29 04:54:37;;;;;;;6.13;5.53;;;19.60;49.20;;;;;;4953242;28;20475;-79
2023/04/29 04:57:05;;;;;;;6.13;5.53;;;19.60;49.10;;;;;;4948907;29;20471;-80
2023/04/29 04:59:33;;;;;;;6.67;5.97;;;19.60;49.20;;;;;;4955919;28;20466;-79
2023/04/29 05:02:01;;;;;;;6.67;5.67;;;19.60;49.20;;;;;;4964377;28;20478;-79
2023/04/29 05:04:30;;;;;;;7.50;5.57;;;19.60;49.10;;;;;;4948651;29;20447;-79
2023/04/29 05:06:59;;;;;;;5.90;5.40;;;19.60;49.20;;;;;;4953135;29;20586;-79
2023/04/29 05:09:26;;;;;;;7.07;5.70;;;19.60;49.20;;;;;;4936925;29;20516;-80
2023/04/29 05:11:54;;;;;;;8.40;5.63;;;19.60;49.10;;;;;;4939822;29;20468;-80
2023/04/29 05:14:23;;;;;;;7.70;5.50;;;19.60;49.10;;;;;;4956006;28;20450;-79
2023/04/29 05:16:51;;;;;;;5.90;5.30;;;19.60;49.20;;;;;;4956202;29;20451;-79
2023/04/29 05:19:19;;;;;;;8.40;5.43;;;19.60;49.10;;;;;;4939515;29;20459;-79
2023/04/29 05:21:48;;;;;;;6.23;5.70;;;19.60;49.20;;;;;;4953088;29;20466;-79
2023/04/29 05:24:16;;;;;;;7.37;5.93;;;19.60;49.10;;;;;;4946360;29;20442;-79
2023/04/29 05:26:44;;;;;;;10.03;5.53;;;19.60;49.10;;;;;;4947717;29;20451;-80
2023/04/29 05:29:12;;;;;;;5.60;5.07;;;19.70;49.00;;;;;;4946851;29;20480;-79
2023/04/29 05:31:40;;;;;;;6.00;5.40;;;19.60;49.20;;;;;;4946396;29;20991;-80
2023/04/29 05:34:07;;;;;;;7.33;5.30;;;19.60;49.70;;;;;;4940203;29;20455;-79
2023/04/29 05:36:36;;;;;;;5.27;4.87;;;19.70;49.10;;;;;;4953990;29;20450;-80
2023/04/29 05:39:05;;;;;;;6.27;5.60;;;19.60;49.10;;;;;;4953685;29;20451;-80
2023/04/29 05:41:33;;;;;;;6.43;5.07;;;19.70;49.10;;;;;;4947227;29;20479;-80
2023/04/29 05:44:02;;;;;;;5.83;5.17;;;19.70;49.20;;;;;;4940221;29;20440;-80
2023/04/29 05:46:29;;;;;;;5.90;5.30;;;19.70;49.20;;;;;;4939608;29;20443;-80
2023/04/29 05:48:57;;;;;;;6.13;4.80;;;19.70;49.10;;;;;;4953647;29;20475;-80
2023/04/29 05:51:27;;;;;;;5.10;4.63;;;19.70;49.20;;;;;;4939819;29;20482;-80
2023/04/29 05:53:55;;;;;;;9.73;4.70;;;19.60;49.10;;;;;;4944687;28;20483;-80
2023/04/29 05:56:24;;;;;;;5.40;4.90;;;19.60;49.20;;;;;;4951336;29;20451;-80
2023/04/29 05:58:52;;;;;;;6.07;5.00;;;19.70;49.10;;;;;;4943362;29;20448;-79
2023/04/29 06:01:20;;;;;;;5.30;4.80;;;19.60;49.20;;;;;;4952652;29;20475;-80
2023/04/29 06:03:48;;;;;;;5.37;4.93;;;19.60;49.20;;;;;;4950829;29;20455;-80
2023/04/29 06:06:17;;;;;;;5.10;4.60;;;19.60;49.00;;;;;;4950966;28;20480;-80
2023/04/29 06:08:45;;;;;;;5.13;4.63;;;19.70;49.70;;;;;;4954090;29;20534;-80
2023/04/29 06:11:13;;;;;;;5.57;4.27;;;19.70;49.00;;;;;;4951677;29;20466;-79
2023/04/29 06:13:43;;;;;;;5.00;4.50;;;19.70;49.00;;;;;;4944552;29;20507;-80
2023/04/29 06:16:11;;;;;;;5.00;4.60;;;19.70;49.00;;;;;;4947635;29;20467;-80
2023/04/29 06:18:40;;;;;;;5.03;4.60;;;19.70;49.10;;;;;;4950700;28;20443;-80
2023/04/29 06:21:08;;;;;;;4.70;4.30;;;19.70;49.00;;;;;;4961988;29;21000;-81
2023/04/29 06:23:36;;;;;;;7.17;4.10;;;19.80;49.00;;;;;;4955370;29;20463;-79
2023/04/29 06:26:04;;;;;;;4.93;4.10;;;19.80;49.00;;;;;;4961529;29;20454;-79
2023/04/29 06:28:31;;;;;;;4.93;4.47;;;19.80;49.10;;;;;;4962255;29;20477;-79
2023/04/29 06:31:01;;;;;;;4.73;4.33;;;19.80;49.10;;;;;;4952873;29;20466;-78
2023/04/29 06:33:29;;;;;;;5.53;4.37;;;19.80;48.90;;;;;;4950579;29;20452;-79
2023/04/29 06:35:57;;;;;;;4.80;4.40;;;19.80;49.10;;;;;;4962978;29;20445;-79
2023/04/29 06:38:25;;;;;;;4.60;4.13;;;19.90;49.60;;;;;;4949427;29;20439;-79
2023/04/29 06:40:52;;;;;;;4.37;4.07;;;19.90;49.00;;;;;;4957715;29;20486;-79
2023/04/29 06:43:20;;;;;;;4.77;4.23;;;19.90;48.90;;;;;;4952335;28;20955;-79
2023/04/29 06:45:48;;;;;;;4.20;3.87;;;19.90;48.80;;;;;;4957900;29;20443;-79
2023/04/29 06:48:17;;;;;;;4.27;3.97;;;19.90;48.80;;;;;;4963401;29;20445;-78
2023/04/29 06:50:51;;;;;;;4.27;3.97;;;20.00;48.90;;;;;;4960511;29;20463;-79
2023/04/29 06:53:19;;;;;;;5.60;4.63;;;20.00;48.80;;;;;;4958554;29;20969;-78
2023/04/29 06:55:47;;;;;;;4.70;4.40;;;20.00;48.80;;;;;;4946152;29;20466;-78
2023/04/29 06:58:15;;;;;;;4.00;3.70;;;20.00;48.70;;;;;;4951173;29;20460;-78
2023/04/29 07:00:44;;;;;;;3.70;3.50;;;20.10;48.90;;;;;;4944623;29;20470;-78
2023/04/29 07:03:12;;;;;;;4.03;3.73;;;20.10;48.80;;;;;;4948738;29;20488;-78
2023/04/29 07:05:44;;;;;;;4.67;4.27;;;20.10;48.60;;;;;;4945311;29;20616;-78
2023/04/29 07:08:13;;;;;;;4.40;4.10;;;20.10;48.60;;;;;;4947490;29;20448;-79
2023/04/29 07:10:41;;;;;;;4.00;3.60;;;20.10;48.60;;;;;;4941282;29;20483;-79
2023/04/29 07:13:09;;;;;;;3.90;3.60;;;20.20;48.80;;;;;;4939727;29;20448;-78
2023/04/29 07:15:37;;;;;;;4.13;3.73;;;20.20;48.70;;;;;;4954254;29;20447;-79
2023/04/29 07:18:05;;;;;;;3.90;3.60;;;20.20;48.60;;;;;;4942524;28;20945;-78
2023/04/29 07:20:36;;;;;;;4.70;3.63;;;20.30;48.60;;;;;;4952835;29;20452;-79
2023/04/29 07:23:05;;;;;;;3.90;3.60;;;20.30;48.50;;;;;;4958246;29;20463;-79
2023/04/29 07:25:33;;;;;;;3.67;3.47;;;20.40;49.10;;;;;;4950269;28;20454;-77
2023/04/29 07:28:01;;;;;;;3.67;3.40;;;20.40;48.50;;;;;;4958261;29;20478;-78
2023/04/29 07:30:29;;;;;;;3.67;3.40;;;20.50;48.50;;;;;;4951312;28;20467;-78
2023/04/29 07:32:57;;;;;;;4.13;3.80;;;20.50;48.30;;;;;;4955822;29;20459;-78
2023/04/29 07:35:25;;;;;;;3.63;3.43;;;20.50;48.40;;;;;;4948287;29;20552;-78
2023/04/29 07:37:53;;;;;;;4.07;3.77;;;20.60;48.20;;;;;;4947274;29;20470;-78
2023/04/29 07:40:23;;;;;;;6.93;3.77;;;20.60;48.20;;;;;;4951185;29;20443;-78
2023/04/29 07:42:51;;;;;;;4.17;3.77;;;20.60;48.20;;;;;;4957248;28;20470;-78
2023/04/29 07:45:19;;;;;;;3.60;3.30;;;20.70;48.20;;;;;;4953392;29;20452;-79
2023/04/29 07:47:47;;;;;;;4.13;3.37;;;20.70;48.20;;;;;;4954812;29;20451;-77
2023/04/29 07:50:16;;;;;;;4.10;3.43;;;20.70;48.10;;;;;;4951439;29;20558;-77
2023/04/29 07:52:44;;;;;;;4.40;3.47;;;20.80;48.20;;;;;;4953915;29;20546;-77
2023/04/29 07:55:12;;;;;;;4.60;3.43;;;20.90;48.20;;;;;;4954873;29;20463;-78
2023/04/29 07:57:42;;;;;;;3.70;3.50;;;20.90;47.90;;;;;;4945501;29;20454;-78
2023/04/29 08:00:11;;;;;;;3.47;3.17;;;21.00;47.90;;;;;;4955136;29;20448;-77
2023/04/29 08:02:39;;;;;;;3.97;3.60;;;21.00;47.80;;;;;;4947215;29;20475;-79
2023/04/29 08:05:07;;;;;;;3.70;3.43;;;21.10;47.80;;;;;;4954818;29;20546;-79
2023/04/29 08:07:36;;;;;;;3.30;3.10;;;21.10;47.70;;;;;;4954333;29;20481;-79
2023/04/29 08:10:05;;;;;;;3.70;3.40;;;21.10;47.80;;;;;;4944342;29;20487;-79
2023/04/29 08:12:33;;;;;;;4.40;3.90;;;21.20;47.90;;;;;;4947637;29;20487;-79
2023/04/29 08:15:03;;;;;;;3.80;3.30;;;21.20;47.80;;;;;;4943914;29;20448;-79
2023/04/29 08:17:31;;;;;;;3.43;3.23;;;21.20;47.70;;;;;;4953073;29;20453;-79
2023/04/29 08:19:59;;;;;;;2.83;2.67;;;21.20;47.70;;;;;;4941586;29;20448;-78
2023/04/29 08:22:27;;;;;;;3.63;3.07;;;21.30;47.80;;;;;;4948047;29;20479;-79
2023/04/29 08:24:56;;;;;;;3.50;3.20;;;21.30;47.70;;;;;;4950812;29;20451;-79
2023/04/29 08:27:24;;;;;;;3.73;3.43;;;21.40;47.80;;;;;;4943321;29;20456;-79
2023/04/29 08:29:52;;;;;;;4.03;3.73;;;21.50;47.70;;;;;;4959655;29;20479;-79
2023/04/29 08:32:22;;;;;;;3.10;2.90;;;21.50;47.60;;;;;;4951880;28;20455;-79
2023/04/29 08:34:50;;;;;;;3.70;3.40;;;21.60;47.60;;;;;;4951015;29;20455;-79
2023/04/29 08:37:19;;;;;;;3.30;3.10;;;21.60;47.60;;;;;;4952687;28;20458;-77
2023/04/29 08:39:47;;;;;;;2.87;2.70;;;21.70;47.40;;;;;;4945338;29;20449;-79
2023/04/29 08:42:15;;;;;;;3.03;2.70;;;21.80;47.50;;;;;;4944693;29;20477;-80
2023/04/29 08:44:44;;;;;;;4.50;2.93;;;21.80;47.40;;;;;;4959726;28;20446;-80
2023/04/29 08:47:12;;;;;;;3.03;2.83;;;21.90;47.60;;;;;;4947846;29;20459;-80
2023/04/29 08:49:42;;;;;;;3.30;3.00;;;22.00;47.60;;;;;;4959376;29;20450;-79
2023/04/29 08:52:11;;;;;;;3.17;2.97;;;22.20;47.70;;;;;;4949964;29;20475;-78
2023/04/29 08:54:40;;;;;;;6.83;3.00;;;22.30;47.70;;;;;;4947622;29;20459;-80
2023/04/29 08:57:08;;;;;;;3.13;3.00;;;22.50;47.60;;;;;;4958966;29;20554;-78
2023/04/29 08:59:36;;;;;;;2.80;2.60;;;22.60;47.60;;;;;;4959589;29;20518;-78
2023/04/29 09:02:06;;;;;;;3.30;3.00;;;22.70;47.40;;;;;;4950135;28;20545;-80
2023/04/29 09:04:51;;;;;;;2.50;2.30;;;22.80;47.30;;;;;;4958917;29;20453;-81
2023/04/29 09:07:20;;;;;;;2.90;2.80;;;23.00;47.40;;;;;;4943294;29;20456;-81
2023/04/29 09:09:48;;;;;;;3.30;2.70;;;23.10;47.30;;;;;;4955262;29;20447;-81
2023/04/29 09:12:17;;;;;;;3.00;2.53;;;23.20;47.30;;;;;;4948147;29;20542;-80
2023/04/29 09:14:45;;;;;;;3.37;3.17;;;23.40;47.40;;;;;;4953493;29;20486;-80
2023/04/29 09:17:17;;;;;;;3.50;2.77;;;23.60;47.60;;;;;;4940377;29;20463;-79
2023/04/29 09:19:45;;;;;;;3.13;2.93;;;23.90;47.60;;;;;;4944740;29;20455;-80
2023/04/29 09:22:15;;;;;;;2.93;2.80;;;24.10;47.60;;;;;;4945824;28;20465;-80
2023/04/29 09:24:44;;;;;;;3.20;3.00;;;24.30;47.50;;;;;;4948729;28;20485;-80
2023/04/29 09:27:12;;;;;;;2.87;2.57;;;24.60;47.50;;;;;;4948223;28;20443;-80
2023/04/29 09:29:41;;;;;;;2.90;2.70;;;24.80;47.30;;;;;;4953307;29;20470;-80
2023/04/29 09:32:20;;;;;;;5.33;2.60;;;25.10;47.20;;;;;;4956095;28;20481;-80
2023/04/29 09:34:48;;;;;;;2.50;2.40;;;25.40;47.10;;;;;;4938812;29;20483;-80
2023/04/29 09:37:26;;;;;;;2.87;2.67;;;25.60;47.00;;;;;;4950002;29;20436;-81
2023/04/29 09:39:54;;;;;;;2.90;2.37;;;25.80;46.70;;;;;;4954872;29;20442;-81
2023/04/29 09:42:22;;;;;;;2.90;2.70;;;26.00;46.60;;;;;;4949411;29;20482;-82
2023/04/29 09:44:50;;;;;;;2.60;2.50;;;26.30;46.40;;;;;;4951050;29;20477;-80
2023/04/29 09:47:19;;;;;;;2.60;2.50;;;26.50;46.20;;;;;;4954829;29;20418;-80
2023/04/29 09:49:48;;;;;;;2.80;2.70;;;26.70;46.00;;;;;;4953156;29;20485;-80
2023/04/29 09:52:17;;;;;;;2.50;2.40;;;27.00;46.00;;;;;;4950325;28;20505;-80
2023/04/29 09:54:46;;;;;;;2.53;2.43;;;27.20;45.70;;;;;;4949605;29;20573;-79
2023/04/29 09:57:14;;;;;;;2.60;2.50;;;27.60;45.60;;;;;;4949469;29;20434;-79
2023/04/29 09:59:42;;;;;;;2.37;2.27;;;27.80;45.30;;;;;;4950483;29;20440;-80
2023/04/29 10:02:14;;;;;;;2.70;2.50;;;28.10;44.90;;;;;;4950253;29;20464;-80
2023/04/29 10:04:42;;;;;;;4.60;2.53;;;28.40;44.70;;;;;;4944819;29;20436;-80
2023/04/29 10:07:11;;;;;;;2.60;2.40;;;28.70;44.40;;;;;;4947422;29;20538;-81
2023/04/29 10:09:39;;;;;;;5.30;2.33;;;29.00;43.90;;;;;;4938841;29;20445;-81
2023/04/29 10:12:08;;;;;;;2.27;2.07;;;29.20;43.80;;;;;;4941149;29;20468;-80
2023/04/29 10:14:39;;;;;;;2.53;2.10;;;29.20;43.60;;;;;;4941631;29;20452;-81
2023/04/29 10:17:10;;;;;;;2.50;2.40;;;29.30;43.60;;;;;;4946597;29;20430;-81
2023/04/29 10:19:39;;;;;;;2.23;2.03;;;29.60;43.70;;;;;;4952272;29;20436;-79
2023/04/29 10:22:09;;;;;;;1.90;1.80;;;30.00;43.20;;;;;;4955860;29;20559;-80
2023/04/29 10:24:37;;;;;;;2.90;2.03;;;30.10;42.80;;;;;;4943938;29;20410;-81
2023/04/29 10:27:07;;;;;;;2.23;1.90;;;30.00;42.50;;;;;;4958457;28;20458;-81
2023/04/29 10:29:37;;;;;;;2.20;2.10;;;30.10;42.80;;;;;;4946444;29;20414;-81
2023/04/29 10:32:06;;;;;;;2.40;2.30;;;30.30;42.90;;;;;;4946061;29;20454;-81
2023/04/29 10:34:34;;;;;;;2.40;2.13;;;30.50;42.70;;;;;;4944063;29;20458;-81
2023/04/29 10:37:02;;;;;;;2.03;1.90;;;30.80;42.20;;;;;;4952566;28;20466;-81
2023/04/29 10:39:32;;;;;;;2.50;2.40;;;30.60;41.70;;;;;;4943514;29;20421;-80
2023/04/29 10:42:01;;;;;;;2.20;2.00;;;30.80;42.20;;;;;;4952772;29;20482;-80
2023/04/29 10:44:31;;;;;;;2.33;2.10;;;31.00;42.30;;;;;;4953335;29;20432;-81
2023/04/29 10:47:20;;;;;;;2.07;2.00;;;31.20;42.10;;;;;;4947273;29;21055;-80
2023/04/29 10:50:02;;;;;;;2.07;1.97;;;31.50;41.70;;;;;;4942801;29;20459;-80
2023/04/29 10:52:29;;;;;;;3.80;2.30;;;31.70;41.00;;;;;;4945556;29;20478;-79
2023/04/29 10:55:02;;;;;;;2.00;1.90;;;31.60;40.60;;;;;;4946214;29;20431;-81
2023/04/29 10:57:30;;;;;;;1.73;1.63;;;31.40;40.60;;;;;;4949568;29;20413;-80
2023/04/29 10:59:59;;;;;;;2.27;2.10;;;31.30;40.80;;;;;;4938837;29;20447;-81
2023/04/29 11:02:27;;;;;;;4.47;1.90;;;31.50;41.40;;;;;;4945308;29;20460;-82
2023/04/29 11:05:08;;;;;;;2.50;2.27;;;31.70;41.00;;;;;;4950452;28;20533;-82
2023/04/29 11:07:37;;;;;;;2.30;2.20;;;31.80;41.10;;;;;;4951625;29;20538;-80
2023/04/29 11:10:05;;;;;;;2.00;1.90;;;32.00;40.70;;;;;;4959557;29;20506;-82
2023/04/29 11:12:33;;;;;;;2.37;2.27;;;32.30;40.80;;;;;;4947750;29;20486;-82
2023/04/29 11:15:04;;;;;;;2.10;2.00;;;32.40;39.80;;;;;;4956167;29;20447;-82
2023/04/29 11:17:36;;;;;;;2.27;2.07;;;32.50;40.80;;;;;;4951162;28;20469;-79
2023/04/29 11:20:06;;;;;;;2.87;1.90;;;34.50;39.00;;;;;;4950786;28;20454;-82
2023/04/29 11:22:34;;;;;;;2.40;2.00;;;36.00;37.40;;;;;;4959189;28;20531;-78
2023/04/29 11:25:02;;;;;;;1.70;1.60;;;36.70;36.30;;;;;;4943034;29;20529;-80
2023/04/29 11:27:31;;;;;;;2.80;1.50;;;38.20;34.50;;;;;;4948437;29;20542;-80
2023/04/29 11:30:00;;;;;;;1.30;1.30;;;39.40;32.80;;;;;;4942871;29;20522;-80
2023/04/29 11:32:31;;;;;;;1.83;1.40;;;40.40;31.10;;;;;;4948933;29;20475;-82
2023/04/29 11:35:08;;;;;;;2.60;1.63;;;41.20;30.10;;;;;;4941905;29;20439;-82
2023/04/29 11:37:36;;;;;;;2.53;1.50;;;42.10;29.40;;;;;;4954956;28;20487;-81
2023/04/29 11:40:05;;;;;;;1.93;1.20;;;43.00;28.30;;;;;;4951073;29;20534;-79
2023/04/29 11:42:35;;;;;;;1.13;1.07;;;43.60;27.80;;;;;;4954973;29;20485;-80
2023/04/29 11:45:03;;;;;;;1.10;1.00;;;44.10;26.60;;;;;;4951243;29;20455;-80
2023/04/29 11:47:32;;;;;;;1.13;1.13;;;44.00;27.20;;;;;;4950492;29;20461;-79
2023/04/29 11:50:05;;;;;;;1.20;1.20;;;44.70;26.80;;;;;;4958789;29;20474;-79
2023/04/29 11:52:35;;;;;;;1.27;1.17;;;45.20;26.30;;;;;;4955467;29;20516;-79
2023/04/29 11:55:03;;;;;;;1.33;1.23;;;45.70;25.80;;;;;;4955352;28;20956;-80
2023/04/29 11:57:31;;;;;;;1.40;1.30;;;46.10;25.60;;;;;;4958580;29;20454;-79
2023/04/29 12:00:00;;;;;;;2.10;1.10;;;46.50;25.30;;;;;;4958775;29;20469;-79
2023/04/29 12:02:32;;;;;;;1.75;1.20;;;46.70;25.10;;;;;;4955948;29;20474;-76
2023/04/29 12:05:05;;;;;;;1.48;1.25;;;47.10;24.70;;;;;;4948438;29;20205;-75
2023/04/29 12:07:33;;;;;;;1.02;0.93;;;47.40;24.60;;;;;;4939931;29;20208;-77
2023/04/29 12:10:01;;;;;;;1.95;1.10;;;47.70;24.20;;;;;;4956151;28;20208;-76
2023/04/29 12:12:30;;;;;;;0.95;0.95;;;47.90;24.10;;;;;;4950154;29;20224;-77
2023/04/29 12:14:58;;;;;;;1.45;1.00;;;48.10;23.80;;;;;;4956188;29;20204;-80
2023/04/29 12:17:26;;;;;;;1.73;1.30;;;48.40;23.90;;;;;;4944792;28;20201;-79
2023/04/29 12:19:56;;;;;;;3.72;1.05;;;47.60;20.80;;;;;;4960078;29;20259;-80
2023/04/29 12:22:25;;;;;;;5.97;1.35;;;46.60;20.90;;;;;;4951819;29;20478;-82
2023/04/29 12:24:54;;;;;;;7.70;1.23;;;45.90;21.00;;;;;;4945924;29;20219;-77
2023/04/29 12:27:22;;;;;;;7.90;1.63;;;45.20;21.40;;;;;;4950087;29;20457;-80
2023/04/29 12:29:52;;;;;;;6.33;1.73;;;44.80;21.90;;;;;;4951954;29;20449;-80
2023/04/29 12:32:22;;;;;;;5.33;1.67;;;44.40;22.10;;;;;;4951719;29;20463;-78
2023/04/29 12:34:51;;;;;;;11.23;2.30;;;44.10;22.40;;;;;;4949343;29;20458;-79
2023/04/29 12:37:22;;;;;;;4.63;1.97;;;44.00;22.60;;;;;;4954140;28;20450;-78
2023/04/29 12:39:51;;;;;;;15.23;2.43;;;43.80;23.00;;;;;;4944411;29;20482;-77
2023/04/29 12:42:20;;;;;;;12.03;2.23;;;43.30;23.20;;;;;;4951157;29;20478;-78
2023/04/29 12:44:48;;;;;;;15.53;2.30;;;43.10;23.40;;;;;;4949064;29;20462;-78
2023/04/29 12:47:16;;;;;;;11.60;2.17;;;43.00;23.40;;;;;;4948079;29;20448;-77
2023/04/29 12:49:45;;;;;;;6.80;1.90;;;42.90;23.50;;;;;;4943993;29;20453;-78
2023/04/29 12:52:13;;;;;;;8.17;2.10;;;42.70;23.60;;;;;;4952950;29;20490;-77
2023/04/29 12:54:43;;;;;;;5.60;1.83;;;42.60;23.90;;;;;;4950051;29;20936;-77